Time;durP1;ratioP1;P1;durP2;ratioP2;P2;SDS_P1;SDS_P2;PMS_P1;PMS_P2;Temp;Humidity;BMP_temperature;BMP_pressure;BME280_temperature;BME280_humidity;BME280_pressure;Samples;Min_cycle;Max_cycle;Signal;HPM_P1;HPM_P2
2022/02/07 00:00:23;;;;;;;12.38;2.35;;;;;;;2.57;81.06;98337.22;5011179;28;20100;-61
2022/02/07 00:03:04;;;;;;;10.68;2.20;;;;;;;2.64;81.24;98324.78;5011351;28;20022;-60
2022/02/07 00:05:30;;;;;;;;;;;;;;;2.63;81.15;98344.31;5012076;28;20125;-59
2022/02/07 00:07:56;;;;;;;4.50;1.83;;;;;;;2.63;81.16;98344.31;5011807;28;20402;-60
2022/02/07 00:10:22;;;;;;;13.80;2.40;;;;;;;2.64;81.91;98338.00;5010069;28;20054;-58
2022/02/07 00:12:48;;;;;;;14.15;2.40;;;;;;;2.66;80.60;98361.59;5011988;28;20363;-59
2022/02/07 00:15:14;;;;;;;7.25;2.05;;;;;;;2.68;80.82;98370.16;5011265;28;20447;-59
2022/02/07 00:17:39;;;;;;;9.20;2.13;;;;;;;2.65;82.04;98367.94;5010956;28;20026;-59
2022/02/07 00:20:09;;;;;;;12.50;2.33;;;;;;;2.72;80.68;98363.38;5011796;28;20372;-59
2022/02/07 00:22:35;;;;;;;8.55;2.05;;;;;;;2.67;80.36;98364.06;5010741;28;20022;-59
2022/02/07 00:25:01;;;;;;;11.45;2.78;;;;;;;2.72;80.35;98381.91;5015857;28;20092;-58
2022/02/07 00:27:26;;;;;;;5.35;2.00;;;;;;;2.80;79.33;98393.06;5012072;28;20033;-59
2022/02/07 00:29:52;;;;;;;6.25;2.10;;;;;;;2.78;79.25;98403.06;5011421;28;20033;-59
2022/02/07 00:32:17;;;;;;;9.13;1.80;;;;;;;2.76;79.52;98386.56;5024021;28;20372;-59
2022/02/07 00:34:42;;;;;;;10.82;2.50;;;;;;;2.72;79.71;98405.72;5018968;28;20065;-60
2022/02/07 00:37:08;;;;;;;11.15;2.25;;;;;;;2.74;79.52;98415.09;5013274;28;20038;-58
2022/02/07 00:39:43;;;;;;;10.45;2.28;;;;;;;2.81;79.27;98423.81;5011436;28;20057;-59
2022/02/07 00:42:18;;;;;;;9.82;1.88;;;;;;;2.79;79.15;98432.97;5010757;28;20045;-59
2022/02/07 00:44:45;;;;;;;10.02;2.60;;;;;;;2.75;80.08;98435.25;5010466;28;20495;-59
2022/02/07 00:47:11;;;;;;;5.63;1.98;;;;;;;2.81;78.74;98441.53;5009383;28;20052;-59
2022/02/07 00:49:36;;;;;;;8.45;2.10;;;;;;;2.85;78.71;98441.94;5010395;28;20486;-59
2022/02/07 00:52:02;;;;;;;5.68;1.80;;;;;;;2.76;79.09;98447.44;5012693;28;20053;-59
2022/02/07 00:54:27;;;;;;;14.32;2.38;;;;;;;2.87;78.25;98447.78;5012910;28;20069;-59
2022/02/07 00:56:53;;;;;;;10.68;2.28;;;;;;;2.86;78.52;98454.13;5010217;28;20057;-59
2022/02/07 00:59:18;;;;;;;10.70;2.85;;;;;;;2.89;77.74;98456.34;5009696;28;20096;-59
2022/02/07 01:01:44;;;;;;;16.67;2.70;;;;;;;2.92;77.71;98480.56;5009619;28;20476;-59
2022/02/07 01:04:09;;;;;;;6.90;2.58;;;;;;;2.99;77.33;98469.94;5014519;28;20480;-59
2022/02/07 01:06:35;;;;;;;8.00;2.45;;;;;;;2.98;77.96;98474.41;5010095;28;20041;-59
2022/02/07 01:56:20;;;;;;;7.13;1.83;;;;;;;1.61;88.39;98711.28;5009266;28;20042;-59
2022/02/07 01:58:45;;;;;;;6.45;2.00;;;;;;;1.54;88.07;98730.75;5007006;28;20169;-59
2022/02/07 02:01:11;;;;;;;6.70;2.05;;;;;;;1.58;88.05;98734.63;5007794;28;20069;-59
2022/02/07 02:03:36;;;;;;;6.57;2.05;;;;;;;1.62;88.27;98751.72;5010621;28;20037;-59
2022/02/07 02:06:02;;;;;;;10.32;2.90;;;;;;;1.61;87.83;98756.19;5008785;28;20042;-59
2022/02/07 02:08:27;;;;;;;10.63;2.22;;;;;;;1.60;87.40;98764.28;5009482;28;20034;-59
2022/02/07 02:10:57;;;;;;;10.52;2.35;;;;;;;1.51;88.08;98776.84;5008470;28;20049;-59
2022/02/07 02:13:36;;;;;;;5.28;1.67;;;;;;;1.59;86.67;98775.88;5009819;28;20048;-59
2022/02/07 02:16:12;;;;;;;13.07;3.10;;;;;;;1.53;87.04;98790.69;5009027;28;20500;-59
2022/02/07 02:38:03;;;;;;;15.30;2.75;;;;;;;1.75;84.70;98852.19;5008510;28;20555;-58
2022/02/07 02:45:57;;;;;;;7.82;2.65;;;;;;;1.66;84.76;98895.63;5008159;28;20529;-59
2022/02/07 02:48:24;;;;;;;19.48;3.03;;;;;;;1.64;84.66;98900.28;5014086;28;20071;-59
2022/02/07 02:50:52;;;;;;;14.15;2.45;;;;;;;1.67;84.86;98905.16;5015859;28;20128;-59
2022/02/07 02:53:18;;;;;;;13.57;2.30;;;;;;;1.64;84.10;98913.50;5012230;28;20022;-59
2022/02/07 02:55:45;;;;;;;10.93;2.22;;;;;;;1.80;82.68;98939.63;5008681;28;20454;-59
2022/02/07 02:58:14;;;;;;;13.02;2.58;;;;;;;1.78;83.03;98948.75;5009333;28;20487;-59
2022/02/07 03:00:40;;;;;;;12.57;2.63;;;;;;;1.78;82.34;98954.84;5011653;28;20041;-59
2022/02/07 03:03:06;;;;;;;10.80;3.30;;;;;;;1.81;82.14;98954.47;5012187;28;20034;-59
2022/02/07 03:05:31;;;;;;;15.23;2.80;;;;;;;1.80;82.35;98967.84;5012421;28;20180;-59
2022/02/07 03:07:57;;;;;;;15.02;2.20;;;;;;;1.88;81.69;98967.72;5021214;28;20387;-59
2022/02/07 03:11:24;;;;;;;7.07;2.47;;;;;;;1.87;82.20;98985.44;5021410;28;20059;-59
2022/02/07 03:13:34;;;;;;;14.80;2.72;;;;;;;1.94;81.80;98986.25;5008945;28;20406;-59
2022/02/07 03:18:42;;;;;;;14.27;2.65;;;;;;;2.06;81.61;99009.53;5022314;28;20111;-59
2022/02/07 03:21:08;;;;;;;12.52;2.60;;;;;;;2.12;81.41;99024.63;5011539;28;20462;-59
2022/02/07 03:23:33;;;;;;;14.15;3.42;;;;;;;2.10;82.49;99042.53;5013602;28;20022;-59
2022/02/07 03:25:59;;;;;;;17.13;2.33;;;;;;;2.07;83.60;99053.47;5012045;28;20120;-59
2022/02/07 03:28:25;;;;;;;23.27;3.58;;;;;;;1.99;84.46;99045.69;5021219;28;20444;-59
2022/02/07 03:30:51;;;;;;;11.93;2.92;;;;;;;2.02;84.24;99048.78;5011378;28;20033;-59
2022/02/07 03:33:16;;;;;;;7.70;2.45;;;;;;;2.04;83.57;99057.31;5011318;28;20025;-59
2022/02/07 03:35:42;;;;;;;13.73;3.05;;;;;;;2.02;82.51;99069.09;5026172;28;20497;-59
2022/02/07 03:38:07;;;;;;;10.57;2.30;;;;;;;2.02;82.19;99075.22;5024254;28;20152;-59
2022/02/07 03:40:33;;;;;;;12.38;2.95;;;;;;;2.01;81.50;99078.03;5019974;28;20073;-59
2022/02/07 03:42:58;;;;;;;15.77;2.47;;;;;;;1.87;81.79;99083.22;5011810;28;20365;-59
2022/02/07 03:45:24;;;;;;;11.50;2.30;;;;;;;1.92;82.40;99087.91;5010548;28;20046;-59
2022/02/07 03:47:49;;;;;;;8.00;2.50;;;;;;;1.80;82.19;99100.00;5011206;28;20396;-59
2022/02/07 03:50:15;;;;;;;7.97;2.15;;;;;;;1.81;81.42;99106.94;5012179;28;20050;-59
2022/02/07 03:52:40;;;;;;;22.80;2.90;;;;;;;1.84;81.16;99109.19;5011049;28;20417;-59
2022/02/07 03:55:06;;;;;;;9.85;2.17;;;;;;;1.75;81.19;99116.44;5011554;28;20046;-59
2022/02/07 03:57:32;;;;;;;10.30;2.22;;;;;;;1.78;80.77;99118.69;5012401;28;20365;-60
2022/02/07 03:59:57;;;;;;;13.35;2.17;;;;;;;1.77;80.24;99132.91;5017387;28;20037;-59
2022/02/07 04:02:23;;;;;;;19.08;2.83;;;;;;;1.76;81.18;99147.13;5020236;28;20052;-59
2022/02/07 04:04:56;;;;;;;16.30;2.50;;;;;;;1.76;80.20;99156.88;5011750;28;20528;-59
2022/02/07 04:07:22;;;;;;;12.43;2.25;;;;;;;1.82;80.33;99161.41;5011533;28;20436;-59
2022/02/07 04:09:52;;;;;;;14.57;2.30;;;;;;;1.77;80.53;99182.28;5010882;28;20044;-59
2022/02/07 04:12:22;;;;;;;14.98;2.25;;;;;;;1.75;80.99;99195.72;5010141;28;20404;-59
2022/02/07 04:14:47;;;;;;;14.50;1.98;;;;;;;1.69;81.37;99191.16;5010759;28;20486;-59
2022/02/07 04:17:19;;;;;;;10.35;1.70;;;;;;;1.71;81.52;99202.38;5011150;28;20050;-59
2022/02/07 04:19:44;;;;;;;9.05;2.30;;;;;;;1.64;81.55;99196.19;5012303;28;20026;-59
2022/02/07 04:22:10;;;;;;;20.83;2.50;;;;;;;1.70;82.00;99213.94;5010031;28;20473;-59
2022/02/07 04:24:35;;;;;;;12.23;2.55;;;;;;;1.72;81.42;99206.63;5011327;28;20043;-59
2022/02/07 04:27:00;;;;;;;9.35;2.60;;;;;;;1.70;81.24;99227.16;5010684;28;20049;-59
2022/02/07 04:29:26;;;;;;;8.95;2.15;;;;;;;1.75;81.38;99222.13;5010836;28;20468;-59
2022/02/07 04:31:51;;;;;;;8.77;2.00;;;;;;;1.79;81.02;99241.06;5009901;28;20774;-59
2022/02/07 04:34:17;;;;;;;16.98;2.70;;;;;;;1.74;81.11;99228.41;5011735;28;20021;-59
2022/02/07 04:36:44;;;;;;;14.00;2.03;;;;;;;1.74;81.33;99254.84;5011088;28;20091;-59
2022/02/07 04:39:10;;;;;;;15.77;2.17;;;;;;;1.74;81.50;99249.53;5011265;28;20057;-59
2022/02/07 04:41:40;;;;;;;17.02;1.98;;;;;;;1.77;81.62;99254.47;5016660;28;20120;-59
2022/02/07 04:44:09;;;;;;;7.90;2.33;;;;;;;1.68;81.56;99269.59;5010800;28;20026;-59
2022/02/07 04:52:23;;;;;;;20.77;2.33;;;;;;;1.78;81.45;99298.41;5014749;28;20042;-59
2022/02/07 04:59:38;;;;;;;19.67;2.22;;;;;;;1.70;81.48;99309.06;5011266;28;20530;-60
2022/02/07 05:02:14;;;;;;;13.00;1.95;;;;;;;1.83;80.96;99321.63;5009100;28;20042;-60
2022/02/07 05:04:46;;;;;;;16.75;2.30;;;;;;;1.76;81.96;99339.22;5011026;28;20033;-60
2022/02/07 05:15:23;;;;;;;9.50;1.90;;;;;;;1.82;81.14;99352.53;4995247;28;20500;-60
2022/02/07 05:17:48;;;;;;;13.38;2.10;;;;;;;1.83;81.30;99364.75;5007549;28;20037;-60
2022/02/07 05:20:14;;;;;;;18.92;2.70;;;;;;;1.73;81.93;99369.47;5002899;28;20468;-60
2022/02/07 05:22:39;;;;;;;17.27;2.80;;;;;;;1.75;81.23;99364.84;4990388;28;20041;-60
2022/02/07 05:25:05;;;;;;;14.32;2.78;;;;;;;1.85;81.12;99365.38;5000038;28;20395;-62
2022/02/07 05:27:31;;;;;;;28.35;6.88;;;;;;;1.88;80.93;99372.94;4991498;28;20038;-59
2022/02/07 05:29:56;;;;;;;14.30;3.00;;;;;;;1.85;80.36;99386.53;4990998;28;20033;-59
2022/02/07 05:32:22;;;;;;;12.50;2.63;;;;;;;1.87;81.09;99391.63;4989613;28;20101;-59
2022/02/07 05:34:48;;;;;;;14.75;2.40;;;;;;;1.86;81.05;99401.38;4997369;28;20030;-61
2022/02/07 05:37:15;;;;;;;14.95;2.53;;;;;;;1.91;81.00;99408.75;4990787;28;20065;-60
2022/02/07 05:39:42;;;;;;;7.53;2.20;;;;;;;1.90;81.15;99413.22;4991781;28;20113;-60
2022/02/07 05:42:08;;;;;;;18.50;2.72;;;;;;;2.00;80.10;99412.13;4990486;28;20038;-60
2022/02/07 05:44:34;;;;;;;6.50;2.20;;;;;;;2.03;80.68;99420.53;4990926;28;20116;-60
2022/02/07 05:47:00;;;;;;;12.00;2.17;;;;;;;1.91;81.30;99421.97;4989566;28;20093;-59
2022/02/07 05:49:26;;;;;;;16.92;2.20;;;;;;;1.91;81.17;99428.06;4990113;28;20424;-60
2022/02/07 05:51:52;;;;;;;12.77;2.20;;;;;;;1.89;81.33;99432.72;5004637;28;20046;-60
2022/02/07 05:54:17;;;;;;;17.27;3.05;;;;;;;1.87;81.73;99445.31;4988745;28;20121;-60
2022/02/07 05:56:43;;;;;;;15.20;2.42;;;;;;;1.82;81.50;99431.81;4989140;28;20050;-60
2022/02/07 05:59:08;;;;;;;12.52;2.60;;;;;;;1.87;81.06;99458.53;4988547;28;20038;-60
2022/02/07 06:01:34;;;;;;;21.40;3.53;;;;;;;2.01;80.69;99453.44;4990508;28;20049;-60
2022/02/07 06:04:00;;;;;;;16.48;2.85;;;;;;;1.96;80.73;99464.53;4997634;28;20121;-59
2022/02/07 06:06:25;;;;;;;16.13;2.60;;;;;;;1.84;81.86;99466.81;5004441;28;20042;-59
2022/02/07 06:08:50;;;;;;;14.93;2.72;;;;;;;1.87;81.15;99462.97;4990375;28;20026;-59
2022/02/07 06:11:16;;;;;;;11.13;2.72;;;;;;;1.77;81.93;99479.09;4989534;28;20050;-60
2022/02/07 06:13:41;;;;;;;17.30;2.78;;;;;;;1.81;81.63;99492.78;4990921;28;20472;-60
2022/02/07 06:16:07;;;;;;;6.93;2.50;;;;;;;2.04;80.02;99487.44;4992497;28;20041;-60
2022/02/07 06:18:33;;;;;;;14.40;2.42;;;;;;;1.97;80.19;99482.03;4988849;28;20036;-59
2022/02/07 06:21:05;;;;;;;17.92;3.03;;;;;;;1.87;80.38;99503.47;4989029;28;20088;-60
2022/02/07 06:23:30;;;;;;;15.38;2.75;;;;;;;1.90;80.65;99503.09;4989875;28;20034;-59
2022/02/07 06:25:56;;;;;;;18.60;2.63;;;;;;;1.98;80.01;99515.44;5001918;28;20074;-60
2022/02/07 06:28:21;;;;;;;11.88;2.55;;;;;;;1.99;80.27;99510.94;4990027;28;20058;-60
2022/02/07 06:30:47;;;;;;;13.75;2.10;;;;;;;2.04;80.03;99519.16;4989477;28;20060;-60
2022/02/07 06:33:12;;;;;;;11.95;2.42;;;;;;;2.12;79.42;99521.72;4989709;28;20022;-60
2022/02/07 06:35:38;;;;;;;18.90;2.88;;;;;;;2.07;79.66;99522.28;4992731;28;20046;-59
2022/02/07 06:38:03;;;;;;;24.70;4.00;;;;;;;2.06;80.39;99527.75;4994359;28;20050;-60
2022/02/07 06:40:28;;;;;;;16.30;2.80;;;;;;;2.05;79.60;99526.13;5006213;28;20050;-59
2022/02/07 06:42:56;;;;;;;22.02;2.92;;;;;;;2.10;79.00;99534.31;4991781;28;20042;-60
2022/02/07 06:45:22;;;;;;;21.65;2.63;;;;;;;2.15;79.97;99527.50;5003159;28;20484;-60
2022/02/07 06:47:47;;;;;;;9.00;2.30;;;;;;;2.14;79.52;99540.88;4993437;28;20373;-60
2022/02/07 06:50:13;;;;;;;18.85;3.08;;;;;;;2.19;79.51;99551.75;4996789;28;20053;-59
2022/02/07 06:52:38;;;;;;;22.08;2.90;;;;;;;2.30;79.89;99561.88;4994450;28;20030;-60
2022/02/07 06:55:04;;;;;;;21.67;3.33;;;;;;;2.29;79.17;99573.47;4992936;28;20050;-59
2022/02/07 06:57:30;;;;;;;15.88;3.20;;;;;;;2.26;79.31;99568.53;4994072;28;20110;-60
2022/02/07 06:59:55;;;;;;;17.85;3.28;;;;;;;2.27;79.64;99582.56;4994022;28;20124;-59
2022/02/07 07:02:26;;;;;;;18.00;3.10;;;;;;;2.33;80.53;99584.50;4991768;28;20045;-59
2022/02/07 07:04:52;;;;;;;15.60;2.92;;;;;;;2.34;80.27;99592.25;4993231;28;20081;-60
2022/02/07 07:07:19;;;;;;;36.00;11.52;;;;;;;2.40;81.43;99592.53;4993205;28;20500;-60
2022/02/07 07:09:45;;;;;;;15.05;5.85;;;;;;;2.45;79.76;99608.72;4993523;28;20038;-59
2022/02/07 07:12:11;;;;;;;23.38;4.90;;;;;;;2.49;79.81;99607.34;4992412;28;20872;-60
2022/02/07 07:14:47;;;;;;;14.32;3.15;;;;;;;2.48;79.35;99613.63;4993572;28;20141;-60
2022/02/07 07:17:12;;;;;;;21.05;4.00;;;;;;;2.48;79.67;99618.94;4992241;28;20049;-60
2022/02/07 07:19:37;;;;;;;18.08;3.88;;;;;;;2.58;79.05;99622.13;4998083;28;20038;-60
2022/02/07 07:22:05;;;;;;;11.27;2.85;;;;;;;2.62;78.62;99625.22;4992112;28;20058;-60
2022/02/07 07:24:30;;;;;;;21.58;3.33;;;;;;;2.70;78.72;99638.41;5002558;28;20038;-60
2022/02/07 07:26:56;;;;;;;36.28;3.42;;;;;;;2.75;77.99;99644.78;4995077;28;20064;-60
2022/02/07 07:29:27;;;;;;;16.27;3.38;;;;;;;2.72;78.40;99645.16;4992314;28;20337;-60
2022/02/07 07:31:58;;;;;;;17.42;2.72;;;;;;;2.64;79.70;99647.03;4991069;28;20037;-60
2022/02/07 07:34:24;;;;;;;12.77;3.28;;;;;;;2.59;80.36;99652.88;4992354;28;20065;-60
2022/02/07 07:36:49;;;;;;;14.18;2.53;;;;;;;2.63;79.87;99656.81;4992537;28;20042;-60
2022/02/07 07:39:15;;;;;;;29.73;3.13;;;;;;;2.56;79.98;99666.47;5004407;28;20038;-60
2022/02/07 07:41:41;;;;;;;22.35;4.05;;;;;;;2.72;80.15;99660.19;4989167;28;20076;-59
2022/02/07 07:44:07;;;;;;;16.52;3.70;;;;;;;2.69;79.57;99671.97;5000817;28;20038;-60
2022/02/07 07:46:33;;;;;;;12.80;2.75;;;;;;;2.72;79.41;99678.72;4990496;28;20053;-60
2022/02/07 07:49:04;;;;;;;13.65;2.60;;;;;;;2.76;79.52;99693.25;4991442;28;20038;-60
2022/02/07 07:51:49;;;;;;;11.93;3.42;;;;;;;2.77;79.52;99700.19;4998667;28;20514;-60
2022/02/07 08:02:16;;;;;;;24.63;5.90;;;;;;;2.98;78.66;99716.19;4994112;28;20324;-60
2022/02/07 08:04:44;;;;;;;18.92;4.47;;;;;;;3.01;78.58;99722.94;4992166;28;20484;-59
2022/02/07 08:07:22;;;;;;;17.60;3.38;;;;;;;3.10;78.76;99719.22;4994614;28;20083;-60
2022/02/07 08:12:16;;;;;;;24.80;7.75;;;;;;;3.16;78.45;99737.03;5001943;28;20053;-60
2022/02/07 08:14:42;;;;;;;21.33;4.07;;;;;;;3.14;78.20;99754.91;5000306;28;20029;-60
2022/02/07 08:17:08;;;;;;;20.13;4.88;;;;;;;3.21;78.06;99760.31;5003767;28;20496;-60
2022/02/07 08:19:34;;;;;;;18.08;3.97;;;;;;;3.28;77.81;99771.84;5016428;28;20042;-60
2022/02/07 08:22:00;;;;;;;14.82;4.32;;;;;;;3.16;78.04;99771.47;4991457;28;20496;-60
2022/02/07 08:24:25;;;;;;;11.63;4.22;;;;;;;3.18;78.69;99766.81;4993383;28;20038;-59
2022/02/07 08:26:53;;;;;;;26.48;5.53;;;;;;;3.27;78.15;99775.50;4999190;28;20045;-60
2022/02/07 08:29:19;;;;;;;21.73;6.03;;;;;;;3.23;78.12;99785.63;4989990;28;20084;-60
2022/02/07 08:31:44;;;;;;;20.30;6.03;;;;;;;3.20;77.92;99796.59;4991295;28;20114;-60
2022/02/07 08:34:10;;;;;;;17.70;5.50;;;;;;;3.26;78.40;99799.53;5003844;28;20037;-60
2022/02/07 08:36:35;;;;;;;17.63;6.00;;;;;;;3.29;77.74;99804.44;4992766;28;20046;-59
2022/02/07 08:39:02;;;;;;;23.33;6.60;;;;;;;3.40;77.90;99802.19;4991527;28;20053;-60
2022/02/07 08:41:28;;;;;;;26.40;3.90;;;;;;;3.46;76.86;99816.53;5000643;28;20080;-60
2022/02/07 08:43:54;;;;;;;22.88;9.60;;;;;;;3.43;77.25;99816.91;4990791;28;20057;-60
2022/02/07 08:46:20;;;;;;;18.27;5.47;;;;;;;3.40;78.42;99823.38;4990405;28;20553;-60
2022/02/07 08:48:45;;;;;;;25.90;6.05;;;;;;;3.45;77.64;99823.66;5001608;28;20030;-60
2022/02/07 08:51:10;;;;;;;16.05;3.55;;;;;;;3.50;77.73;99831.06;4994064;28;20076;-60
2022/02/07 08:53:42;;;;;;;16.70;4.22;;;;;;;3.54;77.33;99839.47;4990623;28;20069;-60
2022/02/07 08:56:08;;;;;;;17.73;4.28;;;;;;;3.73;76.96;99843.44;4992440;28;20050;-59
2022/02/07 08:58:36;;;;;;;22.80;4.80;;;;;;;3.66;77.10;99852.09;4991198;28;20079;-60
2022/02/07 09:01:20;;;;;;;18.17;2.85;;;;;;;3.72;77.26;99852.38;5004066;28;20037;-60
2022/02/07 09:04:18;;;;;;;23.90;3.25;;;;;;;3.82;77.50;99858.22;4997638;28;20117;-60
2022/02/07 09:11:24;;;;;;;39.78;11.20;;;;;;;3.83;78.01;99875.78;4990451;28;20034;-59
2022/02/07 09:13:50;;;;;;;69.80;21.13;;;;;;;3.85;77.62;99884.41;4991298;28;20035;-60
2022/02/07 09:19:10;;;;;;;56.17;17.30;;;;;;;4.02;77.08;99891.16;4993655;28;20042;-59
2022/02/07 09:21:36;;;;;;;35.10;10.05;;;;;;;4.06;76.84;99895.06;4993028;28;20527;-60
2022/02/07 09:24:02;;;;;;;20.42;5.88;;;;;;;4.11;77.05;99905.13;4990450;28;20088;-60
2022/02/07 09:26:27;;;;;;;33.88;10.98;;;;;;;4.09;76.88;99918.59;4989722;28;20038;-60
2022/02/07 09:28:53;;;;;;;36.15;10.10;;;;;;;4.13;76.28;99918.22;4996277;28;20026;-60
2022/02/07 09:31:21;;;;;;;26.17;8.13;;;;;;;4.13;77.38;99928.84;5004066;28;20042;-60
2022/02/07 09:33:46;;;;;;;42.90;13.40;;;;;;;4.13;77.47;99934.97;5000620;28;20022;-60
2022/02/07 09:36:13;;;;;;;52.28;16.23;;;;;;;4.20;76.66;99935.06;4997336;28;20096;-60
2022/02/07 09:38:38;;;;;;;38.65;9.73;;;;;;;4.16;77.63;99949.69;5004974;28;20069;-61
2022/02/07 09:41:04;;;;;;;37.13;9.02;;;;;;;4.07;76.50;99957.75;5001533;28;20069;-60
2022/02/07 09:43:32;;;;;;;28.42;6.45;;;;;;;4.13;77.11;99960.69;5001796;28;20022;-60
2022/02/07 09:46:05;;;;;;;60.03;22.67;;;;;;;4.08;77.85;99971.84;4999661;28;20046;-60
2022/02/07 09:48:38;;;;;;;31.95;7.90;;;;;;;4.08;77.32;99969.19;5000536;28;20492;-60
2022/02/07 09:51:03;;;;;;;38.00;14.57;;;;;;;4.00;76.90;99978.06;5004614;28;20056;-60
2022/02/07 09:53:30;;;;;;;24.10;7.60;;;;;;;3.97;77.39;99970.47;5000653;28;20392;-59
2022/02/07 09:55:57;;;;;;;43.35;15.27;;;;;;;4.08;77.38;99979.78;4999230;28;20052;-60
2022/02/07 09:58:22;;;;;;;37.85;12.68;;;;;;;4.20;77.50;99975.69;4995975;28;20034;-60
2022/02/07 10:00:48;;;;;;;27.88;4.85;;;;;;;4.33;76.22;99980.34;5003342;28;20038;-60
2022/02/07 10:03:22;;;;;;;45.10;12.80;;;;;;;4.27;76.10;99992.53;4999865;28;20037;-59
2022/02/07 10:05:58;;;;;;;49.08;11.27;;;;;;;4.32;76.39;100007.91;4993357;28;20097;-60
2022/02/07 10:11:55;;;;;;;;;;;;;;;4.33;76.33;100022.81;4962742;28;20558;-59
2022/02/07 10:14:26;;;;;;;29.20;5.88;;;;;;;4.46;76.28;100040.75;5000321;28;19937;-59
2022/02/07 10:17:07;;;;;;;63.47;21.17;;;;;;;4.47;75.70;100048.56;4999473;28;20084;-59
2022/02/07 10:22:54;;;;;;;18.88;7.20;;;;;;;4.43;74.47;100067.66;4966574;28;20562;-62
2022/02/07 10:40:41;;;;;;;22.60;3.97;;;;;;;5.05;73.24;100108.97;5022144;28;20142;-61
2022/02/07 10:48:51;;;;;;;20.30;3.33;;;;;;;5.25;72.23;100104.72;5007546;28;20050;-60
2022/02/07 10:51:18;;;;;;;20.13;2.92;;;;;;;5.34;71.97;100103.63;5018193;28;20053;-60
2022/02/07 10:53:43;;;;;;;25.60;3.38;;;;;;;5.34;72.29;100118.72;5018570;28;20064;-60
2022/02/07 10:56:08;;;;;;;20.02;3.10;;;;;;;5.33;71.81;100120.56;5014437;28;20041;-60
2022/02/07 10:58:34;;;;;;;17.20;2.95;;;;;;;5.28;71.70;100122.97;5010649;28;20038;-60
2022/02/07 11:01:09;;;;;;;34.67;7.63;;;;;;;5.13;71.62;100135.44;5018614;28;20199;-60
2022/02/07 11:03:41;;;;;;;72.55;27.50;;;;;;;5.22;73.02;100158.25;5008653;28;20041;-60
2022/02/07 11:06:08;;;;;;;84.35;27.73;;;;;;;5.24;72.23;100145.63;5009950;28;20185;-59
2022/02/07 11:08:46;;;;;;;29.73;11.52;;;;;;;5.25;71.28;100152.56;5006942;28;20038;-60
2022/02/07 11:16:32;;;;;;;35.05;8.75;;;;;;;5.18;72.08;100152.47;5016268;28;20134;-60
2022/02/07 11:21:36;;;;;;;29.30;9.70;;;;;;;5.11;72.19;100164.84;5010975;28;20042;-60
2022/02/07 11:24:51;;;;;;;35.60;12.27;;;;;;;5.08;72.56;100169.72;5024060;28;20072;-60
2022/02/07 11:27:49;;;;;;;21.52;6.90;;;;;;;5.22;72.61;100178.69;5016684;28;20045;-60
2022/02/07 11:30:15;;;;;;;33.92;9.55;;;;;;;5.19;72.71;100190.50;5019126;28;20064;-60
2022/02/07 11:32:41;;;;;;;26.92;6.10;;;;;;;5.22;73.05;100198.13;5012409;28;20044;-59
2022/02/07 11:35:09;;;;;;;31.40;11.20;;;;;;;5.19;73.16;100190.50;5021725;28;20202;-60
2022/02/07 11:37:35;;;;;;;37.97;8.73;;;;;;;5.26;72.77;100202.06;5019685;28;20135;-60
2022/02/07 11:40:00;;;;;;;37.03;9.30;;;;;;;5.25;71.29;100204.91;5009660;28;20029;-60
2022/02/07 11:42:28;;;;;;;30.63;9.20;;;;;;;5.32;72.08;100206.66;5010399;28;20092;-59
2022/02/07 11:44:53;;;;;;;27.52;6.43;;;;;;;5.48;71.32;100204.81;5007803;28;20536;-59
2022/02/07 11:47:26;;;;;;;24.52;5.82;;;;;;;5.55;71.61;100200.38;5010286;28;20192;-60
2022/02/07 11:49:56;;;;;;;20.73;4.45;;;;;;;5.53;70.73;100210.38;5022978;28;20372;-59
2022/02/07 11:52:30;;;;;;;;;;;;;;;5.55;71.59;100211.03;5020295;28;20092;-60
2022/02/07 11:54:56;;;;;;;23.50;4.05;;;;;;;5.52;70.61;100216.72;5023619;28;19921;-59
2022/02/07 11:57:23;;;;;;;20.30;4.00;;;;;;;5.73;70.75;100218.59;5013918;28;20046;-59
2022/02/07 11:59:58;;;;;;;18.80;3.47;;;;;;;5.49;70.35;100225.91;5009918;28;20033;-60
2022/02/07 12:02:37;;;;;;;21.95;3.50;;;;;;;5.60;70.38;100229.91;5007771;28;20157;-60
2022/02/07 12:05:07;;;;;;;18.20;3.92;;;;;;;5.49;70.08;100228.56;5009789;28;20467;-60
2022/02/07 12:07:37;;;;;;;15.13;3.50;;;;;;;5.25;70.16;100234.97;5016782;28;20065;-59
2022/02/07 12:10:13;;;;;;;22.23;3.23;;;;;;;5.28;70.63;100231.94;5015355;28;20073;-60
2022/02/07 12:12:42;;;;;;;30.67;4.28;;;;;;;5.27;70.49;100234.81;5015948;28;20037;-60
2022/02/07 12:15:23;;;;;;;24.23;3.95;;;;;;;5.23;71.11;100244.97;5017585;28;20073;-60
2022/02/07 12:17:57;;;;;;;14.88;3.38;;;;;;;5.34;70.96;100235.69;5013133;28;20293;-60
2022/02/07 12:20:30;;;;;;;17.40;4.03;;;;;;;5.32;70.11;100238.56;5023678;28;20057;-60
2022/02/07 12:23:08;;;;;;;20.83;4.60;;;;;;;5.56;69.60;100244.56;5008502;28;20504;-60
2022/02/07 12:25:37;;;;;;;16.55;3.83;;;;;;;5.65;70.80;100240.81;5009122;28;20627;-60
2022/02/07 12:28:07;;;;;;;22.90;4.10;;;;;;;5.76;70.66;100247.50;5011118;28;20492;-59
2022/02/07 12:30:44;;;;;;;14.13;3.83;;;;;;;5.97;69.72;100241.44;5010086;28;20517;-59
2022/02/07 12:33:10;;;;;;;17.55;3.80;;;;;;;6.05;69.10;100246.63;5020646;28;20038;-60
2022/02/07 12:35:35;;;;;;;14.80;3.20;;;;;;;6.17;67.34;100241.66;5016371;28;20072;-59
2022/02/07 12:38:01;;;;;;;14.90;3.50;;;;;;;6.04;68.10;100247.63;5008839;28;20041;-60
2022/02/07 12:40:26;;;;;;;20.17;4.05;;;;;;;6.01;69.02;100248.84;5012461;28;20085;-60
2022/02/07 12:42:52;;;;;;;15.00;3.67;;;;;;;6.00;67.49;100257.03;5009242;28;20032;-60
2022/02/07 12:45:18;;;;;;;20.17;4.05;;;;;;;5.96;68.10;100237.09;5010431;28;20017;-61
2022/02/07 12:47:50;;;;;;;20.65;3.67;;;;;;;6.15;69.64;100246.34;5014644;28;20072;-61
2022/02/07 12:50:17;;;;;;;16.92;3.97;;;;;;;6.16;67.97;100246.13;5018629;28;20033;-59
2022/02/07 12:52:43;;;;;;;19.77;3.83;;;;;;;6.06;68.11;100248.28;5016335;28;20029;-59
2022/02/07 12:55:09;;;;;;;18.10;4.30;;;;;;;5.90;67.28;100267.13;5013506;28;20565;-59
2022/02/07 12:57:41;;;;;;;18.42;3.30;;;;;;;5.81;66.93;100261.06;5010472;28;20029;-59
2022/02/07 13:00:08;;;;;;;13.88;3.08;;;;;;;5.96;66.86;100264.53;5011274;28;20048;-59
2022/02/07 13:02:34;;;;;;;13.25;3.28;;;;;;;5.90;66.54;100267.13;5009741;28;20038;-59
2022/02/07 13:04:59;;;;;;;18.00;3.40;;;;;;;5.73;66.01;100266.50;5010815;28;20494;-59
2022/02/07 13:07:26;;;;;;;28.33;3.58;;;;;;;5.73;66.76;100263.81;5016960;28;20530;-59
2022/02/07 13:09:56;;;;;;;33.17;3.70;;;;;;;5.76;65.89;100272.25;5013946;28;20026;-59
2022/02/07 13:12:37;;;;;;;21.45;3.13;;;;;;;5.88;66.25;100269.13;5009935;28;20042;-59
2022/02/07 13:15:08;;;;;;;13.77;3.65;;;;;;;5.81;67.36;100272.50;5009443;28;20444;-59
2022/02/07 13:17:33;;;;;;;;;;;;;;;5.79;65.79;100274.56;5025431;28;20526;-59
2022/02/07 13:20:04;;;;;;;22.27;3.63;;;;;;;5.86;65.57;100284.44;5008172;28;19921;-59
2022/02/07 13:22:29;;;;;;;;;;;;;;;5.67;65.10;100277.88;4981967;28;20046;-59
2022/02/07 13:24:56;;;;;;;17.13;3.10;;;;;;;5.79;65.89;100287.88;4990964;28;19921;-60
2022/02/07 13:27:23;;;;;;;9.00;2.88;;;;;;;5.83;65.55;100291.78;5008020;28;20069;-59
2022/02/07 13:29:51;;;;;;;18.48;3.10;;;;;;;5.74;66.02;100290.25;5013006;28;20029;-60
2022/02/07 13:32:18;;;;;;;17.67;2.60;;;;;;;5.92;65.34;100291.72;5017509;28;20069;-61
2022/02/07 13:34:44;;;;;;;11.00;2.63;;;;;;;5.83;64.03;100288.31;5017301;28;20030;-60
2022/02/07 13:37:18;;;;;;;10.57;2.65;;;;;;;6.02;65.77;100293.09;5009478;28;20419;-61
2022/02/07 13:39:51;;;;;;;12.95;3.00;;;;;;;5.96;66.60;100293.81;5009745;28;20025;-60
2022/02/07 13:42:16;;;;;;;11.98;3.40;;;;;;;6.01;66.53;100301.25;5015322;28;20103;-59
2022/02/07 13:44:42;;;;;;;15.05;3.88;;;;;;;6.04;66.54;100299.06;5009421;28;20026;-59
2022/02/07 13:47:07;;;;;;;13.68;2.60;;;;;;;5.79;65.95;100295.00;5009323;28;20050;-59
2022/02/07 13:49:32;;;;;;;18.48;3.67;;;;;;;5.87;65.42;100297.59;5012875;28;20104;-58
2022/02/07 13:51:58;;;;;;;12.25;4.00;;;;;;;5.81;66.12;100296.47;4997144;28;20596;-58
2022/02/07 13:54:30;;;;;;;16.65;3.72;;;;;;;5.92;66.71;100291.72;5008558;28;20045;-58
2022/02/07 13:57:00;;;;;;;14.32;3.22;;;;;;;5.87;68.14;100296.75;5007218;28;20046;-59
2022/02/07 13:59:25;;;;;;;16.95;3.67;;;;;;;5.82;68.09;100297.31;5013773;28;20029;-59
2022/02/07 14:01:51;;;;;;;16.67;3.40;;;;;;;5.96;68.73;100303.63;5015228;28;20439;-61